• Join FlightAware (Why Join?)
  • Login
  • US Flag 
01:28AM EDT


 

Airport Tracker/Info


-or-


 

Live Flight TrackerFlight Track Log ✈ UAL582 ✈ 15-Apr-2013 ✈ CYYZ - KORD

Flight Track Log - Related Links

Times and Time Zones

All times are in EDT time to prevent confusion due to time zone crossing. See the UAL582 flight status page for this flight to view local times or setup timezone preferences in your user account.

Time Position Orientation Groundspeed Altitude Reporting Facility
EDT Latitude Longitude Course Direction KTS MPH feet Rate Location/Type
05:11PM 43.6833 -79.5667 277° West 150 173 2,300  Level Toronto Center
05:12PM 43.7333 -79.5000 44° Northeast 220 253 4,000 2,040 Climbing Toronto Center
05:13PM 43.8000 -79.4667 20° North 310 357 6,400 1,500 Climbing Toronto Center
05:14PM 43.7106 -80.0932 277° West  Level FlightAware Approximate
05:14PM 43.8500 -79.5333 316° Northwest 290 334 7,000  Level Toronto Center
05:15PM 43.7167 -80.2135 270° West  Level FlightAware Approximate
05:15PM 43.8500 -79.6500 270° West 260 299 7,500  Level Toronto Center
05:16PM 43.7273 -80.3334 277° West  Level FlightAware Approximate
05:16PM 43.8333 -79.7500 257° West 270 311 10,700  Level Toronto Center
05:17PM 43.8333 -79.8333 270° West 260 299 14,000 2,760 Climbing Toronto Center
05:18PM 43.8167 -79.9500 259° West 290 334 16,300 2,340 Climbing Toronto Center
05:19PM 43.8000 -80.0667 259° West 310 357 18,700 2,280 Climbing Toronto Center
05:20PM 43.7833 -80.2167 261° West 330 380 20,900 3,000 Climbing Toronto Center
05:21PM 43.7667 -80.3333 259° West 330 380 24,700 2,760 Climbing Toronto Center
05:22PM 43.7500 -80.4333 257° West 300 345 26,500 1,440 Climbing Toronto Center
05:23PM 43.7333 -80.5500 259° West 320 368 27,600 1,200 Climbing Toronto Center
05:24PM 43.7167 -80.7000 261° West 340 391 29,000 1,500 Climbing Toronto Center
05:25PM 43.6667 -80.8333 243° Southwest 350 403 30,700 1,800 Climbing Toronto Center
05:26PM 43.6333 -80.9500 248° West 350 403 32,600 1,740 Climbing Toronto Center
05:27PM 43.6167 -81.0833 260° West 340 391 34,200 1,680 Climbing Toronto Center
05:28PM 43.5833 -81.2000 249° West 340 391 36,000 1,500 Climbing Toronto Center
05:29PM 43.5667 -81.3167 259° West 320 368 37,300 960 Climbing Toronto Center
05:30PM 43.5333 -81.4333 249° West 320 368 38,000 300 Climbing Toronto Center
05:31PM 43.5167 -81.5333 257° West 330 380 38,000  Level Toronto Center
05:32PM 43.4833 -81.6833 253° West 330 380 38,000  Level Toronto Center
05:33PM 43.4667 -81.8000 259° West 330 380 38,000  Level Toronto Center
05:34PM 43.4333 -81.9000 245° Southwest 330 380 38,000  Level Toronto Center
05:35PM 43.4000 -82.0167 249° West 330 380 38,000  Level Toronto Center
05:36PM 43.3667 -82.1500 251° West 340 391 38,000  Level Toronto Center
05:37PM 43.3500 -82.2667 259° West 340 391 38,000  Level Toronto Center
05:38PM 43.3167 -82.4000 251° West 340 391 38,000  Level Toronto Center
05:39PM 43.3000 -82.5167 259° West 340 391 38,000  Level Toronto Center
05:40PM 43.2500 -82.6500 243° Southwest 340 391 38,000  Level Toronto Center
05:41PM 43.2531 -82.7294 273° West 345 397 38,000 -240 Level Cleveland Center
05:42PM 43.2217 -82.8481 250° West 345 397 37,700 -660 Descending Cleveland Center
05:43PM 43.1961 -82.9753 255° West 345 397 36,700 -1,020 Descending Cleveland Center
05:44PM 43.1725 -83.0997 255° West 345 397 35,700 -960 Descending Cleveland Center
05:45PM 43.1489 -83.2267 256° West 340 391 34,800 -960 Descending Cleveland Center
05:46PM 43.1250 -83.3567 256° West 340 391 33,800 -1,020 Descending Cleveland Center
05:47PM 43.0989 -83.4892 255° West 351 404 32,800 -900 Descending Cleveland Center
05:48PM 43.0747 -83.6217 256° West 356 410 32,000 -420 Descending Cleveland Center
05:49PM 43.0481 -83.7539 255° West 361 415 32,000  Level Cleveland Center
05:50PM 43.0236 -83.8861 256° West 361 415 32,000  Level Cleveland Center
05:51PM 42.9972 -84.0067 253° West 361 415 32,000  Level Cleveland Center
05:52PM 42.9703 -84.1386 254° West 361 415 32,000  Level Cleveland Center
05:53PM 42.9453 -84.2706 256° West 361 415 32,000  Level Cleveland Center
05:54PM 42.9133 -84.4133 253° West 361 415 32,000  Level Cleveland Center
05:55PM 42.8903 -84.5453 257° West 361 415 32,000  Level Cleveland Center
05:56PM 42.8739 -84.6817 261° West 368 423 32,000  Level Chicago Center
05:57PM 42.8600 -84.8167 262° West 363 418 32,000  Level Chicago Center
05:58PM 42.8436 -84.9794 262° West 362 417 32,000  Level Chicago Center
05:59PM 42.8294 -85.1119 262° West 357 411 32,000 -540 Level Chicago Center
06:00PM 42.8144 -85.2436 261° West 352 405 31,000 -1,020 Descending Chicago Center
06:01PM 42.7997 -85.3761 261° West 352 405 30,000 -1,020 Descending Chicago Center
06:02PM 42.7850 -85.5072 261° West 350 403 29,000 -1,020 Descending Chicago Center
06:03PM 42.7614 -85.6350 256° West 347 399 28,000 -1,020 Descending Chicago Center
06:04PM 42.7394 -85.7597 257° West 340 391 27,000 -1,020 Descending Chicago Center
06:05PM 42.7125 -85.9072 256° West 333 383 26,000 -540 Descending Chicago Center
06:06PM 42.6897 -86.0303 256° West 334 384 26,000 -360 Level Chicago Center
06:07PM 42.6675 -86.1531 256° West 333 383 25,300 -1,440 Descending Chicago Center
06:08PM 42.6456 -86.2714 256° West 325 374 23,100 -2,040 Descending Chicago Center
06:09PM 42.6228 -86.3875 255° West 320 368 21,100 -2,040 Descending Chicago Center
06:10PM 42.6028 -86.4986 256° West 308 354 19,000 -2,040 Descending Chicago Center
06:11PM 42.5814 -86.6089 255° West 302 348 17,000 -2,160 Descending Chicago Center
06:12PM 42.5581 -86.7408 257° West 302 348 14,600 -2,160 Descending Chicago Center
06:13PM 42.5278 -86.8428 248° West 296 341 12,600 -1,980 Descending Chicago Center
06:14PM 42.5003 -86.9458 250° West 293 337 10,600 -1,260 Descending Chicago Center
06:15PM 42.4717 -87.0489 249° West 292 336 10,000 -360 Descending Chicago Center
06:16PM 42.4933 -87.1625 285° West 313 360 9,900 -240 Descending Chicago Center
06:17PM 42.5253 -87.2711 292° West 313 360 9,600 -900 Descending Chicago Center
06:18PM 42.5661 -87.3844 296° West 283 326 8,100 -780 Descending Chicago Center
06:19PM 42.5989 -87.4753 296° West 278 320 8,000 -60 Descending Chicago Center
06:21PM 42.6308 -87.5669 295° West 267 307 8,000 -420 Level Chicago Center
06:22PM 42.5925 -87.5978 211° Southwest 195 224 7,200 -540 Descending Chicago Center
06:23PM 42.5125 -87.5725 167° South 250 288 7,000 -300 Descending Chicago Center
06:24PM 42.4461 -87.5522 167° South 246 283 6,700 -540 Descending Chicago Center
06:25PM 42.3781 -87.5339 169° South 247 284 6,000 -420 Descending Chicago Center
06:26PM 42.3103 -87.5133 167° South 254 292 5,900 -360 Descending Chicago Center
06:27PM 42.2414 -87.4961 170° South 253 291 5,300 -600 Descending Chicago Center
06:28PM 42.1742 -87.4594 158° South 261 300 4,700 -720 Descending Chicago Center
06:29PM 42.1000 -87.4167 157° South 265 305 4,000 -360 Descending Chicago TRACON
06:30PM 42.0333 -87.4167 180° South 241 277 4,100  Climbing Chicago TRACON
06:31PM 42.0000 -87.4667 228° Southwest 211 243 4,100  Level Chicago TRACON
06:32PM 42.0000 -87.5333 270° West 183 211 4,100  Level Chicago TRACON
06:33PM 42.0000 -87.6167 270° West 177 204 4,100 -180 Level Chicago TRACON
06:34PM 42.0000 -87.6833 270° West 177 204 3,800 -540 Descending Chicago TRACON
06:35PM 42.0000 -87.7333 270° West 174 200 3,100 -720 Descending Chicago TRACON